sensor_id;sensor_type;location;lat;lon;timestamp;pressure;altitude;pressure_sealevel;temperature;humidity
6204;BME280;3135;42.602;23.468;2023-06-14T00:21:55;92488.38;;;15.39;100.00
6204;BME280;3135;42.602;23.468;2023-06-14T00:24:22;92492.16;;;15.38;100.00
6204;BME280;3135;42.602;23.468;2023-06-14T00:26:47;92491.94;;;15.43;100.00
6204;BME280;3135;42.602;23.468;2023-06-14T00:29:12;92486.75;;;15.38;100.00
6204;BME280;3135;42.602;23.468;2023-06-14T00:31:38;92478.63;;;15.46;100.00
6204;BME280;3135;42.602;23.468;2023-06-14T00:34:03;92486.06;;;15.49;100.00
6204;BME280;3135;42.602;23.468;2023-06-14T00:36:29;92478.63;;;15.46;100.00
6204;BME280;3135;42.602;23.468;2023-06-14T00:38:54;92470.16;;;15.36;100.00
6204;BME280;3135;42.602;23.468;2023-06-14T00:41:20;92477.66;;;15.51;100.00
6204;BME280;3135;42.602;23.468;2023-06-14T00:43:46;92464.53;;;15.49;100.00
6204;BME280;3135;42.602;23.468;2023-06-14T00:46:11;92461.25;;;15.44;100.00
6204;BME280;3135;42.602;23.468;2023-06-14T00:48:37;92471.63;;;15.54;100.00
6204;BME280;3135;42.602;23.468;2023-06-14T00:51:04;92477.94;;;15.58;100.00
6204;BME280;3135;42.602;23.468;2023-06-14T00:53:31;92463.22;;;15.55;100.00
6204;BME280;3135;42.602;23.468;2023-06-14T00:55:59;92478.69;;;15.67;100.00
6204;BME280;3135;42.602;23.468;2023-06-14T00:58:25;92467.63;;;15.60;100.00
6204;BME280;3135;42.602;23.468;2023-06-14T01:00:51;92465.75;;;15.52;100.00
6204;BME280;3135;42.602;23.468;2023-06-14T01:03:16;92463.53;;;15.54;100.00
6204;BME280;3135;42.602;23.468;2023-06-14T01:05:47;92479.66;;;15.63;100.00
6204;BME280;3135;42.602;23.468;2023-06-14T01:08:51;92457.47;;;15.57;100.00
6204;BME280;3135;42.602;23.468;2023-06-14T01:11:26;92463.19;;;15.64;100.00
6204;BME280;3135;42.602;23.468;2023-06-14T01:13:54;92472.78;;;15.74;100.00
6204;BME280;3135;42.602;23.468;2023-06-14T01:16:21;92465.94;;;15.76;100.00
6204;BME280;3135;42.602;23.468;2023-06-14T01:18:47;92456.94;;;15.72;100.00
6204;BME280;3135;42.602;23.468;2023-06-14T01:21:25;92467.97;;;15.79;100.00
6204;BME280;3135;42.602;23.468;2023-06-14T01:23:51;92474.03;;;15.76;100.00
6204;BME280;3135;42.602;23.468;2023-06-14T01:26:24;92464.84;;;15.77;100.00
6204;BME280;3135;42.602;23.468;2023-06-14T01:28:52;92471.34;;;15.76;100.00
6204;BME280;3135;42.602;23.468;2023-06-14T01:31:22;92469.16;;;15.70;100.00
6204;BME280;3135;42.602;23.468;2023-06-14T01:33:49;92462.69;;;15.62;100.00
6204;BME280;3135;42.602;23.468;2023-06-14T01:36:17;92468.72;;;15.68;100.00
6204;BME280;3135;42.602;23.468;2023-06-14T01:38:44;92468.16;;;15.74;100.00
6204;BME280;3135;42.602;23.468;2023-06-14T01:41:10;92458.50;;;15.73;100.00
6204;BME280;3135;42.602;23.468;2023-06-14T01:43:37;92465.53;;;15.66;100.00
6204;BME280;3135;42.602;23.468;2023-06-14T01:46:05;92459.09;;;15.58;100.00
6204;BME280;3135;42.602;23.468;2023-06-14T01:48:31;92459.09;;;15.58;100.00
6204;BME280;3135;42.602;23.468;2023-06-14T01:50:57;92466.25;;;15.75;100.00
6204;BME280;3135;42.602;23.468;2023-06-14T01:53:22;92467.25;;;15.70;100.00
6204;BME280;3135;42.602;23.468;2023-06-14T01:55:47;92470.34;;;15.81;100.00
6204;BME280;3135;42.602;23.468;2023-06-14T01:58:14;92465.06;;;15.84;100.00
6204;BME280;3135;42.602;23.468;2023-06-14T02:00:41;92449.31;;;15.74;100.00
6204;BME280;3135;42.602;23.468;2023-06-14T02:03:08;92455.28;;;15.80;100.00
6204;BME280;3135;42.602;23.468;2023-06-14T02:05:34;92463.97;;;15.86;100.00
6204;BME280;3135;42.602;23.468;2023-06-14T02:08:00;92467.31;;;15.82;100.00
6204;BME280;3135;42.602;23.468;2023-06-14T02:10:25;92474.47;;;15.78;100.00
6204;BME280;3135;42.602;23.468;2023-06-14T02:12:51;92463.97;;;15.65;100.00
6204;BME280;3135;42.602;23.468;2023-06-14T02:15:17;92485.91;;;15.75;100.00
6204;BME280;3135;42.602;23.468;2023-06-14T02:17:46;92481.19;;;15.72;100.00
6204;BME280;3135;42.602;23.468;2023-06-14T02:20:13;92476.44;;;15.69;100.00
6204;BME280;3135;42.602;23.468;2023-06-14T02:22:38;92492.63;;;15.69;100.00
6204;BME280;3135;42.602;23.468;2023-06-14T02:25:04;92481.84;;;15.69;100.00
6204;BME280;3135;42.602;23.468;2023-06-14T02:27:29;92494.19;;;15.70;100.00
6204;BME280;3135;42.602;23.468;2023-06-14T02:29:55;92491.50;;;15.70;100.00
6204;BME280;3135;42.602;23.468;2023-06-14T02:32:20;92496.38;;;15.77;100.00
6204;BME280;3135;42.602;23.468;2023-06-14T02:34:46;92490.66;;;15.78;100.00
6204;BME280;3135;42.602;23.468;2023-06-14T02:37:15;92485.19;;;15.66;100.00
6204;BME280;3135;42.602;23.468;2023-06-14T02:39:41;92484.09;;;15.67;100.00
6204;BME280;3135;42.602;23.468;2023-06-14T02:42:06;92463.50;;;15.63;100.00
6204;BME280;3135;42.602;23.468;2023-06-14T02:44:32;92490.66;;;15.78;100.00
6204;BME280;3135;42.602;23.468;2023-06-14T02:46:57;92503.00;;;15.79;100.00
6204;BME280;3135;42.602;23.468;2023-06-14T02:49:24;92498.13;;;15.73;100.00
6204;BME280;3135;42.602;23.468;2023-06-14T02:51:49;92513.63;;;15.76;100.00
6204;BME280;3135;42.602;23.468;2023-06-14T02:54:15;92502.06;;;15.75;100.00
6204;BME280;3135;42.602;23.468;2023-06-14T03:01:31;92499.13;;;15.68;100.00
6204;BME280;3135;42.602;23.468;2023-06-14T03:04:03;92504.56;;;15.80;100.00
6204;BME280;3135;42.602;23.468;2023-06-14T03:06:29;92501.69;;;15.86;100.00
6204;BME280;3135;42.602;23.468;2023-06-14T03:08:58;92505.03;;;15.82;100.00
6204;BME280;3135;42.602;23.468;2023-06-14T03:11:25;92513.78;;;15.79;100.00
6204;BME280;3135;42.602;23.468;2023-06-14T03:13:51;92513.19;;;15.74;100.00
6204;BME280;3135;42.602;23.468;2023-06-14T03:16:17;92514.63;;;15.71;100.00
6204;BME280;3135;42.602;23.468;2023-06-14T03:18:49;92509.84;;;15.77;100.00
6204;BME280;3135;42.602;23.468;2023-06-14T03:21:15;92498.94;;;15.73;100.00
6204;BME280;3135;42.602;23.468;2023-06-14T03:23:42;92507.94;;;15.77;100.00
6204;BME280;3135;42.602;23.468;2023-06-14T03:26:07;92502.75;;;15.72;100.00
6204;BME280;3135;42.602;23.468;2023-06-14T03:28:33;92515.47;;;15.84;100.00
6204;BME280;3135;42.602;23.468;2023-06-14T03:30:59;92513.56;;;15.84;100.00
6204;BME280;3135;42.602;23.468;2023-06-14T03:33:25;92514.63;;;15.92;100.00
6204;BME280;3135;42.602;23.468;2023-06-14T03:35:50;92516.78;;;15.99;100.00
6204;BME280;3135;42.602;23.468;2023-06-14T03:38:17;92510.81;;;15.93;100.00
6204;BME280;3135;42.602;23.468;2023-06-14T03:40:42;92503.00;;;15.79;100.00
6204;BME280;3135;42.602;23.468;2023-06-14T03:43:08;92511.03;;;15.88;100.00
6204;BME280;3135;42.602;23.468;2023-06-14T03:45:33;92513.13;;;15.82;100.00
6204;BME280;3135;42.602;23.468;2023-06-14T03:47:59;92505.50;;;15.84;100.00
6204;BME280;3135;42.602;23.468;2023-06-14T03:50:26;92519.03;;;15.97;100.00
6204;BME280;3135;42.602;23.468;2023-06-14T03:52:52;92491.03;;;15.89;100.00
6204;BME280;3135;42.602;23.468;2023-06-14T03:55:17;92514.16;;;16.11;100.00
6204;BME280;3135;42.602;23.468;2023-06-14T03:57:43;92516.09;;;16.10;100.00
6204;BME280;3135;42.602;23.468;2023-06-14T04:00:09;92508.50;;;16.04;100.00
6204;BME280;3135;42.602;23.468;2023-06-14T04:02:35;92513.53;;;16.14;100.00
6204;BME280;3135;42.602;23.468;2023-06-14T04:05:02;92521.19;;;16.24;100.00
6204;BME280;3135;42.602;23.468;2023-06-14T04:07:28;92515.88;;;16.16;100.00
6204;BME280;3135;42.602;23.468;2023-06-14T04:09:54;92505.22;;;16.19;100.00
6204;BME280;3135;42.602;23.468;2023-06-14T04:12:19;92526.09;;;16.10;100.00
6204;BME280;3135;42.602;23.468;2023-06-14T04:14:45;92524.16;;;16.10;100.00
6204;BME280;3135;42.602;23.468;2023-06-14T04:17:10;92527.84;;;16.06;100.00
6204;BME280;3135;42.602;23.468;2023-06-14T04:19:36;92517.47;;;15.96;100.00
6204;BME280;3135;42.602;23.468;2023-06-14T04:22:02;92519.97;;;16.01;100.00
6204;BME280;3135;42.602;23.468;2023-06-14T04:24:28;92528.09;;;16.13;100.00
6204;BME280;3135;42.602;23.468;2023-06-14T04:26:59;92536.28;;;16.04;100.00
6204;BME280;3135;42.602;23.468;2023-06-14T04:29:26;92525.22;;;15.97;100.00
6204;BME280;3135;42.602;23.468;2023-06-14T04:31:54;92528.50;;;16.03;100.00
6204;BME280;3135;42.602;23.468;2023-06-14T04:34:20;92522.19;;;15.99;100.00
6204;BME280;3135;42.602;23.468;2023-06-14T04:36:47;92519.91;;;16.09;100.00
6204;BME280;3135;42.602;23.468;2023-06-14T04:39:18;92526.53;;;16.12;100.00
6204;BME280;3135;42.602;23.468;2023-06-14T04:41:44;92527.09;;;16.18;100.00
6204;BME280;3135;42.602;23.468;2023-06-14T04:44:10;92536.19;;;16.13;100.00
6204;BME280;3135;42.602;23.468;2023-06-14T04:46:36;92523.59;;;16.05;100.00
6204;BME280;3135;42.602;23.468;2023-06-14T04:49:17;92540.59;;;16.18;100.00
6204;BME280;3135;42.602;23.468;2023-06-14T04:51:45;92524.53;;;16.21;100.00
6204;BME280;3135;42.602;23.468;2023-06-14T04:54:11;92533.41;;;16.22;100.00
6204;BME280;3135;42.602;23.468;2023-06-14T04:56:40;92535.53;;;16.16;100.00
6204;BME280;3135;42.602;23.468;2023-06-14T04:59:07;92545.78;;;16.23;100.00
6204;BME280;3135;42.602;23.468;2023-06-14T05:01:34;92537.44;;;16.16;100.00
6204;BME280;3135;42.602;23.468;2023-06-14T05:03:59;92548.75;;;16.30;100.00
6204;BME280;3135;42.602;23.468;2023-06-14T05:06:25;92556.19;;;16.12;100.00
6204;BME280;3135;42.602;23.468;2023-06-14T05:08:53;92546.66;;;16.15;100.00
6204;BME280;3135;42.602;23.468;2023-06-14T05:11:18;92529.22;;;16.12;100.00
6204;BME280;3135;42.602;23.468;2023-06-14T05:13:44;92540.16;;;16.16;100.00
6204;BME280;3135;42.602;23.468;2023-06-14T05:16:10;92526.88;;;16.10;100.00
6204;BME280;3135;42.602;23.468;2023-06-14T05:18:36;92534.81;;;16.28;100.00
6204;BME280;3135;42.602;23.468;2023-06-14T05:21:02;92551.50;;;16.42;100.00
6204;BME280;3135;42.602;23.468;2023-06-14T05:23:29;92550.06;;;16.24;100.00
6204;BME280;3135;42.602;23.468;2023-06-14T05:25:55;92561.03;;;16.40;100.00
6204;BME280;3135;42.602;23.468;2023-06-14T05:28:22;92551.94;;;16.44;100.00
6204;BME280;3135;42.602;23.468;2023-06-14T05:30:47;92556.28;;;16.36;100.00
6204;BME280;3135;42.602;23.468;2023-06-14T05:33:13;92555.25;;;16.08;100.00
6204;BME280;3135;42.602;23.468;2023-06-14T05:35:38;92566.25;;;16.24;100.00
6204;BME280;3135;42.602;23.468;2023-06-14T05:38:04;92567.16;;;16.49;100.00
6204;BME280;3135;42.602;23.468;2023-06-14T05:40:29;92556.91;;;16.42;100.00
6204;BME280;3135;42.602;23.468;2023-06-14T05:42:55;92559.13;;;16.61;100.00
6204;BME280;3135;42.602;23.468;2023-06-14T05:45:20;92566.19;;;16.86;100.00
6204;BME280;3135;42.602;23.468;2023-06-14T05:47:45;92555.03;;;16.88;100.00
6204;BME280;3135;42.602;23.468;2023-06-14T05:50:11;92569.75;;;16.78;100.00
6204;BME280;3135;42.602;23.468;2023-06-14T05:52:36;92569.91;;;16.61;100.00
6204;BME280;3135;42.602;23.468;2023-06-14T05:55:03;92564.78;;;16.47;100.00
6204;BME280;3135;42.602;23.468;2023-06-14T05:57:29;92564.75;;;16.68;100.00
6204;BME280;3135;42.602;23.468;2023-06-14T05:59:54;92576.31;;;16.90;100.00
6204;BME280;3135;42.602;23.468;2023-06-14T06:02:20;92576.13;;;16.74;100.00
6204;BME280;3135;42.602;23.468;2023-06-14T06:04:45;92572.91;;;16.80;100.00
6204;BME280;3135;42.602;23.468;2023-06-14T06:07:11;92580.59;;;16.91;100.00
6204;BME280;3135;42.602;23.468;2023-06-14T06:09:36;92583.66;;;17.01;100.00
6204;BME280;3135;42.602;23.468;2023-06-14T06:12:02;92578.72;;;17.03;100.00
6204;BME280;3135;42.602;23.468;2023-06-14T06:14:27;92586.34;;;16.89;100.00
6204;BME280;3135;42.602;23.468;2023-06-14T06:16:54;92591.63;;;16.98;100.00
6204;BME280;3135;42.602;23.468;2023-06-14T06:19:19;92589.81;;;17.02;100.00
6204;BME280;3135;42.602;23.468;2023-06-14T06:21:44;92585.00;;;17.07;100.00
6204;BME280;3135;42.602;23.468;2023-06-14T06:24:10;92598.41;;;17.16;100.00
6204;BME280;3135;42.602;23.468;2023-06-14T06:26:35;92591.44;;;17.15;100.00
6204;BME280;3135;42.602;23.468;2023-06-14T06:29:01;92595.06;;;17.19;100.00
6204;BME280;3135;42.602;23.468;2023-06-14T06:31:27;92597.09;;;17.22;100.00
6204;BME280;3135;42.602;23.468;2023-06-14T06:33:53;92595.72;;;17.16;100.00
6204;BME280;3135;42.602;23.468;2023-06-14T06:36:19;92587.97;;;17.15;100.00
6204;BME280;3135;42.602;23.468;2023-06-14T06:38:45;92605.50;;;17.08;100.00
6204;BME280;3135;42.602;23.468;2023-06-14T06:41:11;92597.97;;;17.26;100.00
6204;BME280;3135;42.602;23.468;2023-06-14T06:43:36;92598.13;;;17.42;100.00
6204;BME280;3135;42.602;23.468;2023-06-14T06:46:02;92606.69;;;17.56;100.00
6204;BME280;3135;42.602;23.468;2023-06-14T06:48:27;92598.94;;;16.97;100.00
6204;BME280;3135;42.602;23.468;2023-06-14T06:50:53;92604.84;;;17.24;100.00
6204;BME280;3135;42.602;23.468;2023-06-14T06:53:19;92603.66;;;17.46;100.00
6204;BME280;3135;42.602;23.468;2023-06-14T06:55:44;92613.22;;;17.55;100.00
6204;BME280;3135;42.602;23.468;2023-06-14T06:58:10;92619.06;;;17.57;100.00
6204;BME280;3135;42.602;23.468;2023-06-14T07:00:35;92616.44;;;17.24;100.00
6204;BME280;3135;42.602;23.468;2023-06-14T07:03:01;92619.41;;;17.31;100.00
6204;BME280;3135;42.602;23.468;2023-06-14T07:05:29;92624.03;;;17.55;100.00
6204;BME280;3135;42.602;23.468;2023-06-14T07:07:54;92611.75;;;17.58;100.00
6204;BME280;3135;42.602;23.468;2023-06-14T07:10:20;92613.25;;;17.80;100.00
6204;BME280;3135;42.602;23.468;2023-06-14T07:12:46;92614.22;;;17.63;100.00
6204;BME280;3135;42.602;23.468;2023-06-14T07:15:11;92614.50;;;17.95;100.00
6204;BME280;3135;42.602;23.468;2023-06-14T07:17:37;92612.31;;;17.63;100.00
6204;BME280;3135;42.602;23.468;2023-06-14T07:20:04;92619.00;;;17.91;100.00
6204;BME280;3135;42.602;23.468;2023-06-14T07:22:42;92622.84;;;17.90;100.00
6204;BME280;3135;42.602;23.468;2023-06-14T07:25:12;92607.72;;;18.13;100.00
6204;BME280;3135;42.602;23.468;2023-06-14T07:27:40;92607.31;;;18.39;100.00
6204;BME280;3135;42.602;23.468;2023-06-14T07:30:06;92599.81;;;18.60;100.00
6204;BME280;3135;42.602;23.468;2023-06-14T07:32:32;92603.75;;;18.63;100.00
6204;BME280;3135;42.602;23.468;2023-06-14T07:34:57;92604.75;;;18.83;100.00
6204;BME280;3135;42.602;23.468;2023-06-14T07:37:23;92608.00;;;18.88;100.00
6204;BME280;3135;42.602;23.468;2023-06-14T07:39:48;92608.53;;;18.54;100.00
6204;BME280;3135;42.602;23.468;2023-06-14T07:42:14;92606.69;;;18.70;100.00
6204;BME280;3135;42.602;23.468;2023-06-14T07:44:39;92601.50;;;18.77;100.00
6204;BME280;3135;42.602;23.468;2023-06-14T07:47:05;92613.66;;;18.83;100.00
6204;BME280;3135;42.602;23.468;2023-06-14T07:49:30;92607.94;;;19.01;100.00
6204;BME280;3135;42.602;23.468;2023-06-14T07:51:56;92614.16;;;19.17;100.00
6204;BME280;3135;42.602;23.468;2023-06-14T07:54:21;92611.63;;;19.24;100.00
6204;BME280;3135;42.602;23.468;2023-06-14T07:56:51;92628.88;;;19.48;100.00
6204;BME280;3135;42.602;23.468;2023-06-14T07:59:17;92629.50;;;19.41;100.00
6204;BME280;3135;42.602;23.468;2023-06-14T08:01:42;92618.13;;;19.35;100.00
6204;BME280;3135;42.602;23.468;2023-06-14T08:04:13;92638.00;;;19.39;100.00
6204;BME280;3135;42.602;23.468;2023-06-14T08:06:38;92641.47;;;19.68;100.00
6204;BME280;3135;42.602;23.468;2023-06-14T08:09:04;92644.59;;;19.70;100.00
6204;BME280;3135;42.602;23.468;2023-06-14T08:11:30;92650.28;;;19.97;100.00
6204;BME280;3135;42.602;23.468;2023-06-14T08:13:56;92655.25;;;20.26;100.00
6204;BME280;3135;42.602;23.468;2023-06-14T08:16:22;92661.97;;;20.32;100.00
6204;BME280;3135;42.602;23.468;2023-06-14T08:18:48;92662.91;;;20.40;100.00
6204;BME280;3135;42.602;23.468;2023-06-14T08:21:13;92659.97;;;20.29;100.00
6204;BME280;3135;42.602;23.468;2023-06-14T08:23:40;92656.72;;;20.75;100.00
6204;BME280;3135;42.602;23.468;2023-06-14T08:26:08;92672.19;;;20.90;100.00
6204;BME280;3135;42.602;23.468;2023-06-14T08:28:33;92667.13;;;20.37;100.00
6204;BME280;3135;42.602;23.468;2023-06-14T08:30:59;92667.31;;;20.29;100.00
6204;BME280;3135;42.602;23.468;2023-06-14T08:33:24;92674.50;;;20.53;100.00
6204;BME280;3135;42.602;23.468;2023-06-14T08:35:50;92664.63;;;20.99;100.00
6204;BME280;3135;42.602;23.468;2023-06-14T08:38:15;92665.03;;;21.40;100.00
6204;BME280;3135;42.602;23.468;2023-06-14T08:40:41;92653.91;;;21.68;100.00
6204;BME280;3135;42.602;23.468;2023-06-14T08:43:07;92678.56;;;21.56;100.00
6204;BME280;3135;42.602;23.468;2023-06-14T08:45:32;92657.38;;;21.65;100.00
6204;BME280;3135;42.602;23.468;2023-06-14T08:47:59;92662.56;;;22.19;100.00
6204;BME280;3135;42.602;23.468;2023-06-14T08:50:26;92668.75;;;22.16;100.00
6204;BME280;3135;42.602;23.468;2023-06-14T08:52:54;92664.81;;;22.14;100.00
6204;BME280;3135;42.602;23.468;2023-06-14T08:55:22;92670.41;;;22.02;100.00
6204;BME280;3135;42.602;23.468;2023-06-14T08:57:51;92661.91;;;22.26;100.00
6204;BME280;3135;42.602;23.468;2023-06-14T09:00:19;92666.72;;;22.36;100.00
6204;BME280;3135;42.602;23.468;2023-06-14T09:02:46;92661.13;;;21.80;100.00
6204;BME280;3135;42.602;23.468;2023-06-14T09:05:11;92670.91;;;22.57;100.00
6204;BME280;3135;42.602;23.468;2023-06-14T09:07:41;92667.94;;;22.65;100.00
6204;BME280;3135;42.602;23.468;2023-06-14T09:10:16;92653.50;;;22.35;100.00
6204;BME280;3135;42.602;23.468;2023-06-14T09:12:42;92658.09;;;22.31;100.00
6204;BME280;3135;42.602;23.468;2023-06-14T09:15:09;92663.41;;;22.77;100.00
6204;BME280;3135;42.602;23.468;2023-06-14T09:17:35;92659.38;;;23.24;100.00
6204;BME280;3135;42.602;23.468;2023-06-14T09:20:02;92676.19;;;23.63;100.00
6204;BME280;3135;42.602;23.468;2023-06-14T09:22:31;92669.31;;;23.39;100.00
6204;BME280;3135;42.602;23.468;2023-06-14T09:24:57;92655.44;;;23.55;100.00
6204;BME280;3135;42.602;23.468;2023-06-14T09:27:22;92659.13;;;23.69;100.00
6204;BME280;3135;42.602;23.468;2023-06-14T09:29:48;92661.31;;;23.90;100.00
6204;BME280;3135;42.602;23.468;2023-06-14T09:32:13;92662.66;;;24.11;100.00
6204;BME280;3135;42.602;23.468;2023-06-14T09:34:39;92660.06;;;24.32;100.00
6204;BME280;3135;42.602;23.468;2023-06-14T09:37:05;92659.81;;;24.44;100.00
6204;BME280;3135;42.602;23.468;2023-06-14T09:39:31;92671.28;;;24.61;100.00
6204;BME280;3135;42.602;23.468;2023-06-14T09:41:56;92645.41;;;24.47;100.00
6204;BME280;3135;42.602;23.468;2023-06-14T09:44:22;92646.66;;;24.13;100.00
6204;BME280;3135;42.602;23.468;2023-06-14T09:46:55;92643.03;;;23.98;100.00
6204;BME280;3135;42.602;23.468;2023-06-14T09:49:21;92646.41;;;23.84;100.00
6204;BME280;3135;42.602;23.468;2023-06-14T09:51:51;92641.59;;;23.67;100.00
6204;BME280;3135;42.602;23.468;2023-06-14T09:54:22;92643.75;;;23.91;100.00
6204;BME280;3135;42.602;23.468;2023-06-14T09:56:48;92635.25;;;24.00;100.00
6204;BME280;3135;42.602;23.468;2023-06-14T09:59:19;92652.94;;;24.17;100.00
6204;BME280;3135;42.602;23.468;2023-06-14T10:01:50;92627.91;;;24.08;100.00
6204;BME280;3135;42.602;23.468;2023-06-14T10:04:19;92642.84;;;24.21;100.00
6204;BME280;3135;42.602;23.468;2023-06-14T10:06:47;92646.34;;;24.21;100.00
6204;BME280;3135;42.602;23.468;2023-06-14T10:09:13;92647.19;;;24.29;100.00
6204;BME280;3135;42.602;23.468;2023-06-14T10:11:40;92648.00;;;24.33;100.00
6204;BME280;3135;42.602;23.468;2023-06-14T10:14:10;92643.69;;;23.84;100.00
6204;BME280;3135;42.602;23.468;2023-06-14T10:16:51;92644.16;;;23.56;100.00
6204;BME280;3135;42.602;23.468;2023-06-14T10:19:29;92643.63;;;23.77;100.00
6204;BME280;3135;42.602;23.468;2023-06-14T10:22:18;92638.75;;;23.60;100.00
6204;BME280;3135;42.602;23.468;2023-06-14T10:24:45;92633.06;;;23.76;100.00
6204;BME280;3135;42.602;23.468;2023-06-14T10:27:14;92633.75;;;24.06;100.00
6204;BME280;3135;42.602;23.468;2023-06-14T10:32:17;92628.91;;;23.89;100.00
6204;BME280;3135;42.602;23.468;2023-06-14T10:34:44;92636.00;;;23.60;100.00
6204;BME280;3135;42.602;23.468;2023-06-14T10:37:13;92636.19;;;23.40;100.00
6204;BME280;3135;42.602;23.468;2023-06-14T10:39:44;92637.88;;;23.86;100.00
6204;BME280;3135;42.602;23.468;2023-06-14T10:42:11;92632.75;;;23.84;100.00
6204;BME280;3135;42.602;23.468;2023-06-14T10:44:41;92624.47;;;24.14;100.00
6204;BME280;3135;42.602;23.468;2023-06-14T10:47:31;92629.75;;;24.37;100.00
6204;BME280;3135;42.602;23.468;2023-06-14T10:50:04;92616.94;;;24.04;100.00
6204;BME280;3135;42.602;23.468;2023-06-14T10:52:34;92604.59;;;23.73;100.00
6204;BME280;3135;42.602;23.468;2023-06-14T10:55:14;92629.38;;;24.42;100.00
6204;BME280;3135;42.602;23.468;2023-06-14T10:57:43;92625.38;;;24.95;100.00
6204;BME280;3135;42.602;23.468;2023-06-14T11:00:12;92616.34;;;24.84;100.00
6204;BME280;3135;42.602;23.468;2023-06-14T11:05:49;92600.94;;;24.51;100.00
6204;BME280;3135;42.602;23.468;2023-06-14T11:11:06;92613.03;;;25.19;100.00
6204;BME280;3135;42.602;23.468;2023-06-14T11:13:32;92609.91;;;25.24;100.00
6204;BME280;3135;42.602;23.468;2023-06-14T11:15:57;92612.97;;;25.12;97.27
6204;BME280;3135;42.602;23.468;2023-06-14T11:18:24;92605.63;;;25.34;97.14
6204;BME280;3135;42.602;23.468;2023-06-14T11:20:50;92607.28;;;25.56;96.62
6204;BME280;3135;42.602;23.468;2023-06-14T11:23:16;92601.44;;;24.70;100.00
6204;BME280;3135;42.602;23.468;2023-06-14T11:25:41;92606.66;;;24.35;100.00
6204;BME280;3135;42.602;23.468;2023-06-14T11:28:07;92593.06;;;25.15;96.18
6204;BME280;3135;42.602;23.468;2023-06-14T11:30:32;92567.03;;;24.04;96.88
6204;BME280;3135;42.602;23.468;2023-06-14T11:32:58;92583.47;;;24.66;95.92
6204;BME280;3135;42.602;23.468;2023-06-14T11:35:25;92604.06;;;25.29;93.78
6204;BME280;3135;42.602;23.468;2023-06-14T11:37:55;92587.56;;;25.08;94.93
6204;BME280;3135;42.602;23.468;2023-06-14T11:40:24;92599.44;;;25.55;94.19
6204;BME280;3135;42.602;23.468;2023-06-14T11:42:49;92593.50;;;25.31;92.77
6204;BME280;3135;42.602;23.468;2023-06-14T11:45:15;92595.25;;;24.81;94.71
6204;BME280;3135;42.602;23.468;2023-06-14T11:47:41;92589.34;;;24.71;91.99
6204;BME280;3135;42.602;23.468;2023-06-14T11:50:08;92591.97;;;24.54;91.46
6204;BME280;3135;42.602;23.468;2023-06-14T11:52:35;92583.97;;;24.89;90.78
6204;BME280;3135;42.602;23.468;2023-06-14T11:55:02;92564.47;;;24.94;90.02
6204;BME280;3135;42.602;23.468;2023-06-14T11:57:30;92555.47;;;24.21;93.32
6204;BME280;3135;42.602;23.468;2023-06-14T11:59:58;92558.50;;;24.71;93.14
6204;BME280;3135;42.602;23.468;2023-06-14T12:02:24;92547.78;;;25.21;93.96
6204;BME280;3135;42.602;23.468;2023-06-14T12:04:50;92551.38;;;24.56;96.15
6204;BME280;3135;42.602;23.468;2023-06-14T12:07:17;92559.75;;;24.88;96.98
6204;BME280;3135;42.602;23.468;2023-06-14T12:12:22;92546.00;;;24.70;93.29
6204;BME280;3135;42.602;23.468;2023-06-14T12:14:51;92538.38;;;25.11;94.75
6204;BME280;3135;42.602;23.468;2023-06-14T12:17:17;92547.28;;;24.97;91.93
6204;BME280;3135;42.602;23.468;2023-06-14T12:19:44;92554.03;;;25.25;89.70
6204;BME280;3135;42.602;23.468;2023-06-14T12:22:11;92537.88;;;24.88;92.73
6204;BME280;3135;42.602;23.468;2023-06-14T12:24:36;92541.66;;;24.58;93.32
6204;BME280;3135;42.602;23.468;2023-06-14T12:27:03;92535.72;;;24.45;92.78
6204;BME280;3135;42.602;23.468;2023-06-14T12:29:29;92536.94;;;24.52;92.75
6204;BME280;3135;42.602;23.468;2023-06-14T12:31:55;92530.44;;;24.12;94.26
6204;BME280;3135;42.602;23.468;2023-06-14T12:34:26;92539.69;;;24.59;98.05
6204;BME280;3135;42.602;23.468;2023-06-14T12:36:53;92539.41;;;24.78;96.23
6204;BME280;3135;42.602;23.468;2023-06-14T12:39:19;92526.53;;;24.82;98.68
6204;BME280;3135;42.602;23.468;2023-06-14T12:41:44;92533.94;;;24.82;100.00
6204;BME280;3135;42.602;23.468;2023-06-14T12:44:11;92531.66;;;24.94;100.00
6204;BME280;3135;42.602;23.468;2023-06-14T12:46:37;92527.34;;;24.93;100.00
6204;BME280;3135;42.602;23.468;2023-06-14T12:49:04;92528.22;;;25.08;100.00
6204;BME280;3135;42.602;23.468;2023-06-14T12:51:30;92520.81;;;25.09;100.00
6204;BME280;3135;42.602;23.468;2023-06-14T12:53:56;92517.22;;;24.97;100.00
6204;BME280;3135;42.602;23.468;2023-06-14T12:56:21;92494.91;;;24.81;100.00
6204;BME280;3135;42.602;23.468;2023-06-14T12:58:47;92500.38;;;24.81;100.00
6204;BME280;3135;42.602;23.468;2023-06-14T13:01:12;92512.81;;;24.61;100.00
6204;BME280;3135;42.602;23.468;2023-06-14T13:03:38;92506.91;;;24.52;100.00
6204;BME280;3135;42.602;23.468;2023-06-14T13:09:58;92494.81;;;23.90;100.00
6204;BME280;3135;42.602;23.468;2023-06-14T13:12:24;92518.94;;;23.81;100.00
6204;BME280;3135;42.602;23.468;2023-06-14T13:14:49;92518.47;;;23.72;100.00
6204;BME280;3135;42.602;23.468;2023-06-14T13:17:15;92508.53;;;23.57;100.00
6204;BME280;3135;42.602;23.468;2023-06-14T13:19:40;92520.78;;;23.29;100.00
6204;BME280;3135;42.602;23.468;2023-06-14T13:22:07;92505.03;;;23.12;100.00
6204;BME280;3135;42.602;23.468;2023-06-14T13:24:33;92520.41;;;22.93;100.00
6204;BME280;3135;42.602;23.468;2023-06-14T13:26:59;92515.56;;;22.80;100.00
6204;BME280;3135;42.602;23.468;2023-06-14T13:29:25;92527.91;;;22.70;100.00
6204;BME280;3135;42.602;23.468;2023-06-14T13:31:51;92518.69;;;22.18;100.00
6204;BME280;3135;42.602;23.468;2023-06-14T13:34:17;92516.03;;;21.46;100.00
6204;BME280;3135;42.602;23.468;2023-06-14T13:36:43;92525.56;;;20.93;100.00
6204;BME280;3135;42.602;23.468;2023-06-14T13:39:08;92523.03;;;20.62;100.00
6204;BME280;3135;42.602;23.468;2023-06-14T13:41:34;92522.28;;;20.26;100.00